Home > Products > Valid Products > MTR

000
SAUS42 KCHS 030757
MTRNBC
METAR KNBC 030756Z 01005KT 10SM BKN120 24/23 A2995 RMK AO2 SLP142
T02440233 $





000
SAUS42 KCHS 030757
MTRNBC
METAR KNBC 030756Z 01005KT 10SM BKN120 24/23 A2995 RMK AO2 SLP142
T02440233 $





000
SAUS42 KCHS 030754
MTRSAV
METAR KSAV 030753Z AUTO 02003KT 10SM FEW025 BKN042 24/23 A2995 RMK
AO2 RAB41E53 SLP140 P0000 T02390228 TSNO $





000
SAUS42 KCHS 030754
MTRSAV
METAR KSAV 030753Z AUTO 02003KT 10SM FEW025 BKN042 24/23 A2995 RMK
AO2 RAB41E53 SLP140 P0000 T02390228 TSNO $





000
SAUS42 KCHS 030657
MTRNBC
METAR KNBC 030656Z 00000KT 10SM FEW090 BKN120 24/23 A2996 RMK AO2
SLP145 T02440233 $





000
SAUS42 KCHS 030657
MTRNBC
METAR KNBC 030656Z 00000KT 10SM FEW090 BKN120 24/23 A2996 RMK AO2
SLP145 T02440233 $





000
SAUS42 KCHS 030654
MTRSAV
METAR KSAV 030653Z AUTO 01004KT 8SM FEW015 24/23 A2995 RMK AO2
SLP142 T02390228 TSNO $





000
SAUS42 KCHS 030654
MTRSAV
METAR KSAV 030653Z AUTO 01004KT 8SM FEW015 24/23 A2995 RMK AO2
SLP142 T02390228 TSNO $





000
SAUS42 KCHS 030557
MTRNBC
METAR KNBC 030556Z 00000KT 9SM CLR 24/23 A2997 RMK AO2 SLP149
T02390228 10261 20239 58010 $





000
SAUS42 KCHS 030557
MTRNBC
METAR KNBC 030556Z 00000KT 9SM CLR 24/23 A2997 RMK AO2 SLP149
T02390228 10261 20239 58010 $





000
SAUS42 KCHS 030554
MTRSAV
METAR KSAV 030553Z AUTO 01004KT 9SM CLR 24/23 A2998 RMK AO2 SLP150
T02440228 10250 20239 56010 TSNO $





000
SAUS42 KCHS 030554
MTRSAV
METAR KSAV 030553Z AUTO 01004KT 9SM CLR 24/23 A2998 RMK AO2 SLP150
T02440228 10250 20239 56010 TSNO $





000
SAUS42 KCHS 030457
MTRNBC
METAR KNBC 030456Z 00000KT 10SM CLR 24/23 A2998 RMK AO2 SLP153
T02440233 403220239 $





000
SAUS42 KCHS 030455
MTRSAV
METAR KSAV 030453Z AUTO 01004KT 8SM CLR 24/23 A2998 RMK AO2 SLP152
T02440228 403220233 TSNO $





000
SAUS42 KCHS 030357
MTRNBC
METAR KNBC 030356Z 00000KT 10SM CLR 24/23 A2999 RMK AO2 SLP156
T02440233 $





000
SAUS42 KCHS 030354
MTRSAV
METAR KSAV 030353Z 09004KT 10SM BKN110 BKN200 OVC250 24/23 A2999 RMK
AO2 SLP155 LAST AUGMENTED OBSERVATION UNTIL 1000Z T02440233 $





000
SAUS42 KCHS 030257
MTRNBC
METAR KNBC 030256Z 00000KT 10SM FEW120 24/23 A3000 RMK AO2 SLP159
LAST T02440233 51005 $





000
SAUS42 KCHS 030257
MTRNBC
METAR KNBC 030256Z 00000KT 10SM FEW120 24/23 A3000 RMK AO2 SLP159
LAST T02440233 51005 $





000
SAUS42 KCHS 030255
MTRSAV
METAR KSAV 030253Z 00000KT 10SM BKN090 BKN110 OVC200 25/23 A3001 RMK
AO2 SLP160 T02500228 51004 $





000
SAUS42 KCHS 030255
MTRSAV
METAR KSAV 030253Z 00000KT 10SM BKN090 BKN110 OVC200 25/23 A3001 RMK
AO2 SLP160 T02500228 51004 $





000
SAUS42 KCHS 030157
MTRNBC
METAR KNBC 030156Z 00000KT 10SM SCT050 SCT150 25/24 A3000 RMK AO2
SLP159 T02500239 $





000
SAUS42 KCHS 030157
MTRNBC
METAR KNBC 030156Z 00000KT 10SM SCT050 SCT150 25/24 A3000 RMK AO2
SLP159 T02500239 $





000
SAUS42 KCHS 030154
MTRSAV
METAR KSAV 030153Z 23003KT 10SM BKN080 OVC100 25/23 A3001 RMK AO2
SLP160 T02500233 $





000
SAUS42 KCHS 030058
MTRNBC
METAR KNBC 030056Z 20003KT 10SM BKN050 BKN120 26/24 A3000 RMK AO2
SLP158 T02560239 $





000
SAUS42 KCHS 030058
MTRNBC
METAR KNBC 030056Z 20003KT 10SM BKN050 BKN120 26/24 A3000 RMK AO2
SLP158 T02560239 $





000
SAUS42 KCHS 030054
MTRSAV
METAR KSAV 030053Z 00000KT 10SM FEW028 SCT085 SCT110 BKN140 OVC200
25/23 A3000 RMK AO2 SLP157 T02500233 $





000
SAUS42 KCHS 022357
MTRNBC
METAR KNBC 022356Z 00000KT 10SM BKN050 BKN120 26/24 A2998 RMK AO2
SLP154 T02610239 10322 20261 56010 $





000
SAUS42 KCHS 022354
MTRSAV
METAR KSAV 022353Z 21003KT 10SM SCT085 SCT110 BKN140 OVC200 25/23
A2999 RMK AO2 SLP156 60004 T02500233 10289 20244 56005 $





000
SAUS42 KCHS 022354
MTRSAV
METAR KSAV 022353Z 21003KT 10SM SCT085 SCT110 BKN140 OVC200 25/23
A2999 RMK AO2 SLP156 60004 T02500233 10289 20244 56005 $





000
SAUS42 KCHS 022257
MTRNBC
METAR KNBC 022256Z 27003KT 10SM FEW020 BKN050 BKN120 27/23 A2999 RMK
AO2 SLP154 T02720233 $





000
SAUS42 KCHS 022254
MTRSAV
METAR KSAV 022253Z 19005KT 10SM FEW050 SCT085 BKN140 BKN200 26/23
A2999 RMK AO2 SLP156 T02560233 $





000
SAUS42 KCHS 022157
MTRNBC
METAR KNBC 022156Z 23007KT 10SM SCT020 BKN050 BKN120 27/23 A3000 RMK
AO2 TSB05E09 SLP158 T02720228 $





000
SAUS42 KCHS 022154
MTRSAV
METAR KSAV 022153Z 00000KT 10SM FEW039 SCT050 BKN085 BKN140 OVC200
26/23 A3000 RMK AO2 RAE35 SLP158 P0001 T02560228 $





000
SAUS42 KCHS 022057
MTRNBC
METAR KNBC 022056Z 22007KT 10SM SCT020 BKN050 BKN120 27/24 A3001 RMK
AO2 TSE53 SLP164 T02720239 58015





000
SAUS42 KCHS 022054
MTRSAV
METAR KSAV 022053Z 03005KT 7SM RA FEW009 SCT060 BKN090 BKN130 OVC200
24/22 A3001 RMK AO2 SLP161 P0003 60003 T02440222 58017 $





000
SAUS42 KCHS 022054
MTRSAV
METAR KSAV 022053Z 03005KT 7SM RA FEW009 SCT060 BKN090 BKN130 OVC200
24/22 A3001 RMK AO2 SLP161 P0003 60003 T02440222 58017 $





000
SAUS42 KCHS 022036
MTRSAV
SPECI KSAV 022034Z 01003KT 10SM -RA FEW009 SCT060 BKN085 BKN130
OVC200 24/22 A3002 RMK AO2 P0001 T02440222 $





000
SAUS42 KCHS 022036
MTRSAV
SPECI KSAV 022034Z 01003KT 10SM -RA FEW009 SCT060 BKN085 BKN130
OVC200 24/22 A3002 RMK AO2 P0001 T02440222 $





000
SAUS42 KCHS 021957
MTRNBC
METAR KNBC 021956Z 17006KT 10SM TS SCT020CB BKN030 OVC050 28/24
A3004 RMK AO2 TSB14B18E19B24 SLP172 OCNL LTGICCCCACG TS SW MOV NE
T02830244





000
SAUS42 KCHS 021957
MTRNBC
METAR KNBC 021956Z 17006KT 10SM TS SCT020CB BKN030 OVC050 28/24
A3004 RMK AO2 TSB14B18E19B24 SLP172 OCNL LTGICCCCACG TS SW MOV NE
T02830244





000
SAUS42 KCHS 021954
MTRSAV
METAR KSAV 021953Z 22005KT 8SM RA FEW021 SCT050CB BKN075 BKN130
OVC200 26/23 A3006 RMK AO2 TSE19 SLP177 CB SE-W P0000 T02560228 $





000
SAUS42 KCHS 021926
MTRNBC
SPECI KNBC 021924Z 17005KT 10SM TS FEW024CB BKN049 BKN100 29/25
A3005 RMK AO2 TSB14B18E19B24 OCNL LTGICCCCACG TS SW MOV NE T02940250





000
SAUS42 KCHS 021921
MTRSAV
SPECI KSAV 021919Z 09006KT 10SM -RA SCT029 BKN050 BKN075 BKN130
OVC200 26/22 A3007 RMK AO2 TSE19 OCNL LTGIC DSNT SW TS DSNT SW P0000
T02560222 $





000
SAUS42 KCHS 021857
MTRNBC
METAR KNBC 021856Z 16003KT 10SM BKN050 OVC095 30/24 A3005 RMK AO2
SLP175 T03000244





000
SAUS42 KCHS 021857
MTRNBC
METAR KNBC 021856Z 16003KT 10SM BKN050 OVC095 30/24 A3005 RMK AO2
SLP175 T03000244





000
SAUS42 KCHS 021854
MTRSAV
METAR KSAV 021853Z 06007KT 10SM -TSRA SCT029 BKN050CB BKN075 BKN130
OVC200 26/22 A3007 RMK AO2 RAB47 TSB38 SLP182 OCNL LTGIC NW TS NW CB
W-NE P0000 T02560217 $





000
SAUS42 KCHS 021839
MTRSAV
SPECI KSAV 021838Z 06010KT 10SM TS SCT027 BKN055CB BKN075 BKN130
OVC200 26/22 A3006 RMK AO2 TSB38 OCNL LTGIC NW TS NW CB W-NE
T02610217 $





000
SAUS42 KCHS 021839
MTRSAV
SPECI KSAV 021838Z 06010KT 10SM TS SCT027 BKN055CB BKN075 BKN130
OVC200 26/22 A3006 RMK AO2 TSB38 OCNL LTGIC NW TS NW CB W-NE
T02610217 $





000
SAUS42 KCHS 021757
MTRNBC
METAR KNBC 021756Z 10003KT 10SM SCT030 BKN120 BKN250 32/23 A3006 RMK
AO2 SLP179 T03170233 10322 20250 58012





000
SAUS42 KCHS 021754
MTRSAV
METAR KSAV 021753Z 08009KT 10SM SCT030CB BKN047 BKN065 BKN140 OVC250
29/23 A3006 RMK AO2 SLP178 CB N-SE TCU W T02890228 10322 20244 58013
$





000
SAUS42 KCHS 021658
MTRNBC
METAR KNBC 021656Z 00000KT 10SM SCT030 BKN120 BKN250 31/23 A3008 RMK
AO2 SLP185 T03110233





000
SAUS42 KCHS 021658
MTRNBC
METAR KNBC 021656Z 00000KT 10SM SCT030 BKN120 BKN250 31/23 A3008 RMK
AO2 SLP185 T03110233





000
SAUS42 KCHS 021654
MTRSAV
METAR KSAV 021653Z VRB03KT 10SM SCT030TCU BKN050 BKN190 30/23 A3008
RMK AO2 SLP184 CB DSNT NE AND SE AND NW TCU N T03000228 $





000
SAUS42 KCHS 021557
MTRNBC
METAR KNBC 021556Z AUTO 00000KT 10SM CLR 31/24 A3009 RMK AO2 SLP190
T03060239 $





000
SAUS42 KCHS 021555
MTRSAV
METAR KSAV 021553Z 32004KT 10SM SCT023 BKN050 BKN190 30/23 A3009 RMK
AO2 SLP190 T03000233 $





000
SAUS42 KCHS 021514
MTRSAV
SPECI KSAV 021513Z 00000KT 10SM FEW021 SCT027 BKN060 BKN190 31/24
A3010 RMK AO2 T03060244 $





000
SAUS42 KCHS 021458
MTRNBC
METAR KNBC 021456Z VRB03KT 10SM SCT024 SCT250 30/23 A3009 RMK AO2
SLP191 T03000233 58003





000
SAUS42 KCHS 021454
MTRSAV
METAR KSAV 021453Z 30004KT 10SM BKN016 BKN027 BKN090 BKN150 28/24
A3010 RMK AO2 SLP191 T02830239 58002 $





000
SAUS42 KCHS 021454
MTRSAV
METAR KSAV 021453Z 30004KT 10SM BKN016 BKN027 BKN090 BKN150 28/24
A3010 RMK AO2 SLP191 T02830239 58002 $





000
SAUS42 KCHS 021440
MTRSAV
SPECI KSAV 021439Z 32003KT 10SM BKN016 BKN045 BKN090 BKN150 28/24
A3010 RMK AO2 T02830239 $





000
SAUS42 KCHS 021440
MTRSAV
SPECI KSAV 021439Z 32003KT 10SM BKN016 BKN045 BKN090 BKN150 28/24
A3010 RMK AO2 T02830239 $





000
SAUS42 KCHS 021420
MTRSAV
SPECI KSAV 021419Z 34003KT 10SM BKN013 BKN045 BKN080 BKN150 28/24
A3010 RMK AO2 T02830239 $





000
SAUS42 KCHS 021420
MTRSAV
SPECI KSAV 021419Z 34003KT 10SM BKN013 BKN045 BKN080 BKN150 28/24
A3010 RMK AO2 T02830239 $





000
SAUS42 KCHS 021357
MTRNBC
METAR KNBC 021356Z 32004KT 7SM SCT005 27/24 A3011 RMK AO2 SLP195
T02720239





000
SAUS42 KCHS 021354
MTRSAV
METAR KSAV 021353Z VRB03KT 10SM FEW007 SCT050 BKN085 BKN150 28/24
A3011 RMK AO2 SLP193 T02780239 $





000
SAUS42 KCHS 021317 COR
MTRNBC
SPECI KNBC 021312Z 01005KT 3SM BR BKN003 26/24 A3011 RMK AO2
T02610244





000
SAUS42 KCHS 021317 COR
MTRNBC
SPECI KNBC 021312Z 01005KT 3SM BR BKN003 26/24 A3011 RMK AO2
T02610244





000
SAUS42 KCHS 021258
MTRNBC
METAR KNBC 021256Z 34004KT 3SM BR BKN002 26/24 A3011 RMK AO2 SLP196
T02560244





000
SAUS42 KCHS 021258
MTRNBC
METAR KNBC 021256Z 34004KT 3SM BR BKN002 26/24 A3011 RMK AO2 SLP196
T02560244





000
SAUS42 KCHS 021255
MTRSAV
METAR KSAV 021253Z 02005KT 10SM FEW003 SCT015 BKN085 BKN240 26/24
A3011 RMK AO2 SLP196 T02610239 $





000
SAUS42 KCHS 021255
MTRSAV
METAR KSAV 021253Z 02005KT 10SM FEW003 SCT015 BKN085 BKN240 26/24
A3011 RMK AO2 SLP196 T02610239 $





000
SAUS42 KCHS 021227
MTRNBC
SPECI KNBC 021226Z 33005KT 1 1/2SM BR BKN002 25/24 A3011 RMK AO2
T02500239





000
SAUS42 KCHS 021227
MTRNBC
SPECI KNBC 021226Z 33005KT 1 1/2SM BR BKN002 25/24 A3011 RMK AO2
T02500239





000
SAUS42 KCHS 021225
MTRSAV
SPECI KSAV 021224Z 34004KT 9SM FEW003 SCT015 BKN150 BKN240 26/24
A3011 RMK AO2 T02560239 $





000
SAUS42 KCHS 021225
MTRSAV
SPECI KSAV 021224Z 34004KT 9SM FEW003 SCT015 BKN150 BKN240 26/24
A3011 RMK AO2 T02560239 $





000
SAUS42 KCHS 021157
MTRNBC
METAR KNBC 021156Z 34003KT 6SM BR FEW250 25/24 A3010 RMK AO2 SLP194
T02500239 10256 20244 53015





000
SAUS42 KCHS 021157
MTRNBC
METAR KNBC 021156Z 34003KT 6SM BR FEW250 25/24 A3010 RMK AO2 SLP194
T02500239 10256 20244 53015





000
SAUS42 KCHS 021154
MTRSAV
METAR KSAV 021153Z 00000KT 7SM SCT012 BKN150 BKN240 24/23 A3011 RMK
AO2 SLP194 T02440233 10244 20233 53017 $





000
SAUS42 KCHS 021154
MTRSAV
METAR KSAV 021153Z 00000KT 7SM SCT012 BKN150 BKN240 24/23 A3011 RMK
AO2 SLP194 T02440233 10244 20233 53017 $





000
SAUS42 KCHS 021130
MTRSAV
SPECI KSAV 021129Z 36005KT 6SM BR FEW003 SCT012 BKN150 BKN240 24/23
A3010 RMK AO2 T02390233 $





000
SAUS42 KCHS 021130
MTRSAV
SPECI KSAV 021129Z 36005KT 6SM BR FEW003 SCT012 BKN150 BKN240 24/23
A3010 RMK AO2 T02390233 $





000
SAUS42 KCHS 021057
MTRNBC
METAR KNBC 021056Z 34004KT 10SM FEW250 24/24 A3008 RMK AO2 SLP186
FIRST T02440239





000
SAUS42 KCHS 021054
MTRSAV
METAR KSAV 021053Z 00000KT 9SM FEW001 FEW005 BKN011 OVC240 24/23
A3009 RMK AO2 SLP188 T02440233 $





000
SAUS42 KCHS 021012
MTRSAV
SPECI KSAV 021011Z 36003KT 5SM BR FEW001 OVC010 24/23 A3007 RMK AO2
T02390233 $





000
SAUS42 KCHS 020957
MTRSAV
SPECI KSAV 020956Z 36003KT 1SM R10/P6000FT BR BKN001 24/23 A3007 RMK
AO2 SFC VIS 3 T02390233 $





000
SAUS42 KCHS 020957
MTRNBC
METAR KNBC 020956Z AUTO 34003KT 10SM CLR 24/24 A3007 RMK AO2 SLP182
T02440239





000
SAUS42 KCHS 020954
MTRSAV
METAR KSAV 020953Z 35003KT 3SM BR BKN001 24/23 A3007 RMK AO2 SLP180
FIRST AUGMENTED OBSERVATION T02390233 $





000
SAUS42 KCHS 020936
MTRSAV
SPECI KSAV 020935Z AUTO 36005KT 2SM BR OVC001 24/23 A3006 RMK AO2
T02390228 TSNO $





000
SAUS42 KCHS 020926
MTRSAV
SPECI KSAV 020925Z AUTO 01004KT 1 1/4SM BR OVC001 24/23 A3006 RMK
AO2 T02390228 TSNO $





000
SAUS42 KCHS 020926
MTRSAV
SPECI KSAV 020925Z AUTO 01004KT 1 1/4SM BR OVC001 24/23 A3006 RMK
AO2 T02390228 TSNO $





000
SAUS42 KCHS 020920
MTRSAV
SPECI KSAV 020919Z AUTO 01004KT 2SM R10/5000VP6000FT BR OVC001 24/23
A3006 RMK AO2 T02390233 TSNO $





000
SAUS42 KCHS 020908
MTRSAV
SPECI KSAV 020907Z AUTO 36004KT 3SM R10/5000VP6000FT BR BKN001 24/23
A3006 RMK AO2 T02390228 TSNO $





000
SAUS42 KCHS 020857
MTRNBC
METAR KNBC 020856Z 35004KT 8SM CLR 24/24 A3006 RMK AO2 SLP179
T02440239 55004





000
SAUS42 KCHS 020854
MTRSAV
METAR KSAV 020853Z AUTO 36003KT 4SM BR FEW001 24/23 A3005 RMK AO2
SLP176 T02390228 56006 TSNO $





000
SAUS42 KCHS 020854
MTRSAV
METAR KSAV 020853Z AUTO 36003KT 4SM BR FEW001 24/23 A3005 RMK AO2
SLP176 T02390228 56006 TSNO $





000
SAUS42 KCHS 020757
MTRNBC
METAR KNBC 020756Z 00000KT 10SM CLR 24/24 A3006 RMK AO2 SLP179
T02440239





000
SAUS42 KCHS 020754
MTRSAV
METAR KSAV 020753Z AUTO 36003KT 8SM CLR 24/23 A3006 RMK AO2 SLP177
T02390228 TSNO $





000
SAUS42 KCHS 020754
MTRSAV
METAR KSAV 020753Z AUTO 36003KT 8SM CLR 24/23 A3006 RMK AO2 SLP177
T02390228 TSNO $





000
SAUS42 KCHS 020657
MTRNBC
METAR KNBC 020656Z 00000KT 10SM CLR 24/24 A3006 RMK AO2 SLP179
T02440239





000
SAUS42 KCHS 020657
MTRNBC
METAR KNBC 020656Z 00000KT 10SM CLR 24/24 A3006 RMK AO2 SLP179
T02440239





000
SAUS42 KCHS 020654
MTRSAV
METAR KSAV 020653Z AUTO 00000KT 8SM CLR 24/23 A3006 RMK AO2 SLP178
T02440233 TSNO $





000
SAUS42 KCHS 020654
MTRSAV
METAR KSAV 020653Z AUTO 00000KT 8SM CLR 24/23 A3006 RMK AO2 SLP178
T02440233 TSNO $





000
SAUS42 KCHS 020557
MTRNBC
METAR KNBC 020556Z 00000KT 10SM FEW015 26/24 A3007 RMK AO2 SLP183
T02560239 10272 20250 58005





000
SAUS42 KCHS 020557
MTRNBC
METAR KNBC 020556Z 00000KT 10SM FEW015 26/24 A3007 RMK AO2 SLP183
T02560239 10272 20250 58005





000
SAUS42 KCHS 020554
MTRSAV
METAR KSAV 020553Z AUTO 00000KT 10SM CLR 25/23 A3007 RMK AO2 SLP182
T02500233 10272 20250 58006 TSNO $





000
SAUS42 KCHS 020554
MTRSAV
METAR KSAV 020553Z AUTO 00000KT 10SM CLR 25/23 A3007 RMK AO2 SLP182
T02500233 10272 20250 58006 TSNO $





000
SAUS42 KCHS 020457
MTRNBC
METAR KNBC 020456Z 00000KT 10SM CLR 26/24 A3008 RMK AO2 SLP187
T02560239 403110222





000
SAUS42 KCHS 020454
MTRSAV
METAR KSAV 020453Z AUTO 00000KT 10SM CLR 26/24 A3009 RMK AO2 SLP187
T02560239 403170222 TSNO $





000
SAUS42 KCHS 020357
MTRNBC
METAR KNBC 020356Z 00000KT 10SM CLR 26/24 A3009 RMK AO2 SLP190
T02560239





000
SAUS42 KCHS 020354
MTRSAV
METAR KSAV 020353Z 23004KT 10SM FEW014 SCT075 BKN250 26/24 A3010 RMK
AO2 SLP192 LAST AUGMENTED OBSERVATION UNTIL 1000Z T02560239 $





000
SAUS42 KCHS 020258
MTRNBC
METAR KNBC 020256Z 19005KT 10SM OVC080 27/24 A3009 RMK AO2 SLP188
LAST T02670244 50006





000
SAUS42 KCHS 020255
MTRSAV
METAR KSAV 020253Z 15004KT 10SM BKN065 BKN140 OVC250 27/24 A3009 RMK
AO2 SLP188 T02670239 50008 $





000
SAUS42 KCHS 020246
MTRNBC
SPECI KNBC 020244Z 00000KT 10SM OVC080 27/25 A3008 RMK AO2 LAST
T02720250





000
SAUS42 KCHS 020157
MTRNBC
METAR KNBC 020156Z 16003KT 10SM BKN075 OVC090 27/25 A3009 RMK AO2
SLP189 T02670250





000
SAUS42 KCHS 020157
MTRNBC
METAR KNBC 020156Z 16003KT 10SM BKN075 OVC090 27/25 A3009 RMK AO2
SLP189 T02670250





000
SAUS42 KCHS 020155
MTRSAV
METAR KSAV 020153Z 14005KT 10SM FEW014 BKN060 BKN140 OVC250 27/23
A3009 RMK AO2 SLP189 T02670233 $





000
SAUS42 KCHS 020155
MTRSAV
METAR KSAV 020153Z 14005KT 10SM FEW014 BKN060 BKN140 OVC250 27/23
A3009 RMK AO2 SLP189 T02670233 $





000
SAUS42 KCHS 020057
MTRNBC
METAR KNBC 020056Z 00000KT 10SM SCT080 27/24 A3008 RMK AO2 SLP185
T02670244





000
SAUS42 KCHS 020054
MTRSAV
METAR KSAV 020053Z 14005KT 10SM BKN060 BKN140 OVC250 27/23 A3007 RMK
AO2 SLP182 T02670233 $





000
SAUS42 KCHS 012357
MTRNBC
METAR KNBC 012356Z AUTO 15003KT 10SM BKN080 OVC090 27/24 A3007 RMK
AO2 SLP182 T02720244 10311 20272 53000





000
SAUS42 KCHS 012354
MTRSAV
METAR KSAV 012353Z 09005KT 10SM FEW048 BKN075 BKN140 OVC250 27/23
A3007 RMK AO2 SLP181 T02720228 10317 20272 50001 $





000
SAUS42 KCHS 012258
MTRNBC
METAR KNBC 012256Z 13003KT 10SM OVC065 28/24 A3007 RMK AO2 SLP182
T02780239





000
SAUS42 KCHS 012254
MTRSAV
METAR KSAV 012253Z 10006KT 10SM FEW046 BKN060 BKN140 OVC250 28/22
A3007 RMK AO2 SLP182 T02830222 $





000
SAUS42 KCHS 012157
MTRNBC
METAR KNBC 012156Z 00000KT 10SM OVC065 28/24 A3006 RMK AO2 SLP180
T02830239





000
SAUS42 KCHS 012157
MTRNBC
METAR KNBC 012156Z 00000KT 10SM OVC065 28/24 A3006 RMK AO2 SLP180
T02830239





000
SAUS42 KCHS 012154
MTRSAV
METAR KSAV 012153Z 10007KT 10SM FEW047TCU BKN060 BKN140 OVC250 29/22
A3006 RMK AO2 SLP179 TCU E AND SW T02890217 $





000
SAUS42 KCHS 012154
MTRSAV
METAR KSAV 012153Z 10007KT 10SM FEW047TCU BKN060 BKN140 OVC250 29/22
A3006 RMK AO2 SLP179 TCU E AND SW T02890217 $





000
SAUS42 KCHS 012057
MTRNBC
METAR KNBC 012056Z 15003KT 10SM OVC070 29/24 A3007 RMK AO2 SLP181
T02890239 58009





000
SAUS42 KCHS 012054
MTRSAV
METAR KSAV 012053Z 11006KT 10SM SCT047TCU BKN065 BKN085 BKN140
OVC250 29/22 A3006 RMK AO2 SLP179 TCU SW T02890222 56010 $





000
SAUS42 KCHS 011957
MTRNBC
METAR KNBC 011956Z 00000KT 10SM BKN035 BKN080 31/22 A3008 RMK AO2
SLP184 T03060217





000
SAUS42 KCHS 011957
MTRNBC
METAR KNBC 011956Z 00000KT 10SM BKN035 BKN080 31/22 A3008 RMK AO2
SLP184 T03060217





000
SAUS42 KCHS 011954
MTRSAV
METAR KSAV 011953Z 12010KT 10SM FEW029TCU SCT060 BKN070 OVC250 30/23
A3007 RMK AO2 SLP182 TCU SW T03000228 $





000
SAUS42 KCHS 011954
MTRSAV
METAR KSAV 011953Z 12010KT 10SM FEW029TCU SCT060 BKN070 OVC250 30/23
A3007 RMK AO2 SLP182 TCU SW T03000228 $





000
SAUS42 KCHS 011857
MTRNBC
METAR KNBC 011856Z 09003KT 10SM SCT034 BKN055 30/22 A3008 RMK AO2
SLP188 T03000217





000
SAUS42 KCHS 011854
MTRSAV
METAR KSAV 011853Z 14009KT 10SM SCT037TCU BKN047 BKN060 OVC250 30/22
A3008 RMK AO2 SLP185 TCU SW T03000217 $





000
SAUS42 KCHS 011757
MTRNBC
METAR KNBC 011756Z 03004KT 10SM SCT031 BKN250 31/22 A3009 RMK AO2
SLP190 T03060222 10311 20233 58010





000
SAUS42 KCHS 011757
MTRNBC
METAR KNBC 011756Z 03004KT 10SM SCT031 BKN250 31/22 A3009 RMK AO2
SLP190 T03060222 10311 20233 58010





000
SAUS42 KCHS 011755
MTRSAV
METAR KSAV 011753Z 11004KT 10SM SCT038TCU BKN080 BKN250 32/22 A3009
RMK AO2 SLP189 TCU SW T03170217 10317 20233 58010 $





000
SAUS42 KCHS 011657
MTRNBC
METAR KNBC 011656Z 07005KT 10SM SCT024 BKN150 BKN250 30/22 A3011 RMK
AO2 SLP195 T03000222





000
SAUS42 KCHS 011657
MTRNBC
METAR KNBC 011656Z 07005KT 10SM SCT024 BKN150 BKN250 30/22 A3011 RMK
AO2 SLP195 T03000222





000
SAUS42 KCHS 011655
MTRSAV
METAR KSAV 011653Z 00000KT 10SM SCT028 SCT080 BKN250 31/22 A3010 RMK
AO2 SLP192 T03110217 $





000
SAUS42 KCHS 011557
MTRNBC
METAR KNBC 011556Z VRB03KT 10SM SCT025 BKN250 29/22 A3012 RMK AO2
SLP198 T02940222





000
SAUS42 KCHS 011554
MTRSAV
METAR KSAV 011553Z 06005KT 10SM SCT023 BKN040 BKN250 29/23 A3012 RMK
AO2 SLP198 T02890228 $





000
SAUS42 KCHS 011458
MTRNBC
METAR KNBC 011456Z 36005KT 10SM SCT030 SCT250 28/23 A3012 RMK AO2
SLP200 T02780228 50000





000
SAUS42 KCHS 011454
MTRSAV
METAR KSAV 011453Z VRB03KT 10SM FEW023 SCT060 BKN250 28/23 A3012 RMK
AO2 SLP199 T02830228 52001 $





000
SAUS42 KCHS 011400
MTRNBC
METAR KNBC 011356Z COR 03005KT 10SM FEW065 SCT150 28/23 A3012 RMK
AO2 SLP201 $





000
SAUS42 KCHS 011357
MTRNBC
METAR KNBC 011356Z 03005KT 10SM FEW065 SCT150 A3012 RMK AO2 SLP201 $





000
SAUS42 KCHS 011354
MTRSAV
METAR KSAV 011353Z 03006KT 10SM SCT019 BKN060 26/22 A3012 RMK AO2
SLP198 T02610222 $





000
SAUS42 KCHS 011257
MTRNBC
METAR KNBC 011256Z 36006KT 10SM FEW065 SCT150 26/23 A3012 RMK AO2
SLP200 T02560228





000
SAUS42 KCHS 011257
MTRNBC
METAR KNBC 011256Z 36006KT 10SM FEW065 SCT150 26/23 A3012 RMK AO2
SLP200 T02560228





000
SAUS42 KCHS 011255
MTRSAV
METAR KSAV 011253Z 02004KT 10SM BKN060 25/22 A3012 RMK AO2 SLP198
T02500222 $





000
SAUS42 KCHS 011255
MTRSAV
METAR KSAV 011253Z 02004KT 10SM BKN060 25/22 A3012 RMK AO2 SLP198
T02500222 $





000
SAUS42 KCHS 011157
MTRNBC
METAR KNBC 011156Z 36005KT 10SM SCT065 23/22 A3012 RMK AO2 SLP200
T02330222 10233 20222 53022





000
SAUS42 KCHS 011157
MTRNBC
METAR KNBC 011156Z 36005KT 10SM SCT065 23/22 A3012 RMK AO2 SLP200
T02330222 10233 20222 53022





000
SAUS42 KCHS 011154
MTRSAV
METAR KSAV 011153Z 01003KT 10SM FEW020 BKN060 23/22 A3012 RMK AO2
SLP197 T02330217 10233 20222 53022 $





000
SAUS42 KCHS 011154
MTRSAV
METAR KSAV 011153Z 01003KT 10SM FEW020 BKN060 23/22 A3012 RMK AO2
SLP197 T02330217 10233 20222 53022 $





000
SAUS42 KCHS 011057
MTRNBC
METAR KNBC 011056Z 00000KT 10SM FEW250 22/22 A3009 RMK AO2 SLP190
VIS NW 1SM VIS E 1SM T02220217





000
SAUS42 KCHS 011057
MTRNBC
METAR KNBC 011056Z 00000KT 10SM FEW250 22/22 A3009 RMK AO2 SLP190
VIS NW 1SM VIS E 1SM T02220217





000
SAUS42 KCHS 011054
MTRSAV
METAR KSAV 011053Z 00000KT 10SM FEW019 OVC055 23/22 A3010 RMK AO2
SLP190 T02280217 $





000
SAUS42 KCHS 011054
MTRSAV
METAR KSAV 011053Z 00000KT 10SM FEW019 OVC055 23/22 A3010 RMK AO2
SLP190 T02280217 $





000
SAUS42 KCHS 011031
MTRNBC
SPECI KNBC 011022Z COR 00000KT 4SM BR SCT002 23/22 A3008 RMK AO2
T02280222VIS NE 2 1/2SM FIRST





000
SAUS42 KCHS 011031
MTRNBC
SPECI KNBC 011022Z COR 00000KT 4SM BR SCT002 23/22 A3008 RMK AO2
T02280222VIS NE 2 1/2SM FIRST





000
SAUS42 KCHS 011023
MTRNBC
SPECI KNBC 011022Z 00000KT 2 1/2SM BR SCT002 23/22 A3008 RMK AO2
T02280222





000
SAUS42 KCHS 011014
MTRNBC
SPECI KNBC 011013Z AUTO 00000KT 1 3/4SM BR SCT002 23/22 A3007 RMK
AO2 T02280217





000
SAUS42 KCHS 011009
MTRNBC
SPECI KNBC 011008Z AUTO 35004KT 2 1/2SM BR BKN002 23/22 A3007 RMK
AO2 T02330222





000
SAUS42 KCHS 011009
MTRNBC
SPECI KNBC 011008Z AUTO 35004KT 2 1/2SM BR BKN002 23/22 A3007 RMK
AO2 T02330222





000
SAUS42 KCHS 010957
MTRNBC
METAR KNBC 010956Z AUTO 00000KT 8SM FEW002 23/22 A3007 RMK AO2
SLP182 T02280222





000
SAUS42 KCHS 010954
MTRSAV
METAR KSAV 010953Z 00000KT 10SM FEW010 SCT055 BKN250 23/22 A3006 RMK
AO2 SLP180 FIRST AUGMENTED OBSERVATION T02280217 $





000
SAUS42 KCHS 010950
MTRNBC
SPECI KNBC 010949Z AUTO 00000KT 2SM BR FEW002 23/22 A3006 RMK AO2
T02280222





000
SAUS42 KCHS 010942
MTRNBC
SPECI KNBC 010941Z AUTO 00000KT 1 1/4SM BR FEW002 23/22 A3006 RMK
AO2 T02280217





000
SAUS42 KCHS 010940
MTRNBC
SPECI KNBC 010939Z AUTO 00000KT 1 3/4SM BR CLR 23/22 A3006 RMK AO2
T02280217





000
SAUS42 KCHS 010940
MTRNBC
SPECI KNBC 010939Z AUTO 00000KT 1 3/4SM BR CLR 23/22 A3006 RMK AO2
T02280217





000
SAUS42 KCHS 010857
MTRNBC
METAR KNBC 010856Z AUTO 00000KT 10SM CLR 23/22 A3006 RMK AO2 SLP178
T02280217 56011





000
SAUS42 KCHS 010857
MTRNBC
METAR KNBC 010856Z AUTO 00000KT 10SM CLR 23/22 A3006 RMK AO2 SLP178
T02280217 56011





000
SAUS42 KCHS 010854
MTRSAV
METAR KSAV 010853Z AUTO 36003KT 9SM CLR 23/22 A3005 RMK AO2 SLP176
T02280217 56013 TSNO $





000
SAUS42 KCHS 010854
MTRSAV
METAR KSAV 010853Z AUTO 36003KT 9SM CLR 23/22 A3005 RMK AO2 SLP176
T02280217 56013 TSNO $





000
SAUS42 KCHS 010828
MTRNBC
SPECI KNBC 010827Z AUTO 00000KT 8SM SCT002 23/22 A3006 RMK AO2
T02280217





000
SAUS42 KCHS 010757
MTRNBC
METAR KNBC 010756Z AUTO 00000KT 10SM CLR 23/22 A3007 RMK AO2 SLP181
T02280217





000
SAUS42 KCHS 010754
MTRSAV
METAR KSAV 010753Z AUTO 35003KT 7SM BKN090 23/22 A3006 RMK AO2
SLP179 T02280217 TSNO $





000
SAUS42 KCHS 010718
MTRNBC
SPECI KNBC 010716Z AUTO 00000KT 3SM BR CLR 23/22 A3007 RMK AO2
T02280222





000
SAUS42 KCHS 010709
MTRNBC
SPECI KNBC 010707Z AUTO 00000KT 1 3/4SM BR CLR 22/22 A3007 RMK AO2
T02220217





000
SAUS42 KCHS 010657
MTRNBC
METAR KNBC 010656Z AUTO 00000KT 10SM CLR 23/22 A3007 RMK AO2 SLP184
T02330222





000
SAUS42 KCHS 010657
MTRNBC
METAR KNBC 010656Z AUTO 00000KT 10SM CLR 23/22 A3007 RMK AO2 SLP184
T02330222





000
SAUS42 KCHS 010654
MTRSAV
METAR KSAV 010653Z AUTO 00000KT 10SM CLR 23/22 A3007 RMK AO2 SLP183
T02280217 TSNO $





000
SAUS42 KCHS 010654
MTRSAV
METAR KSAV 010653Z AUTO 00000KT 10SM CLR 23/22 A3007 RMK AO2 SLP183
T02280217 TSNO $





000
SAUS42 KCHS 010626
MTRSAV
SPECI KSAV 010625Z AUTO 00000KT 10SM FEW018 SCT027 23/22 A3008 RMK
AO2 T02330222 TSNO $





000
SAUS42 KCHS 010626
MTRSAV
SPECI KSAV 010625Z AUTO 00000KT 10SM FEW018 SCT027 23/22 A3008 RMK
AO2 T02330222 TSNO $





000
SAUS42 KCHS 010557
MTRNBC
METAR KNBC 010556Z AUTO 00000KT 10SM CLR 23/22 A3009 RMK AO2 SLP189
T02280222 10267 20228 56003





000
SAUS42 KCHS 010557
MTRNBC
METAR KNBC 010556Z AUTO 00000KT 10SM CLR 23/22 A3009 RMK AO2 SLP189
T02280222 10267 20228 56003





000
SAUS42 KCHS 010554
MTRSAV
METAR KSAV 010553Z AUTO 00000KT 8SM SCT020 BKN028 23/22 A3009 RMK
AO2 SLP188 T02330222 10267 20228 58002 TSNO $





000
SAUS42 KCHS 010554
MTRSAV
METAR KSAV 010553Z AUTO 00000KT 8SM SCT020 BKN028 23/22 A3009 RMK
AO2 SLP188 T02330222 10267 20228 58002 TSNO $





000
SAUS42 KCHS 010458
MTRNBC
METAR KNBC 010456Z AUTO 00000KT 10SM CLR 23/22 A3009 RMK AO2 SLP189
T02280222 403000228





000
SAUS42 KCHS 010455
MTRSAV
METAR KSAV 010453Z AUTO 00000KT 10SM CLR 23/22 A3010 RMK AO2 SLP191
T02330217 403000228 TSNO $





000
SAUS42 KCHS 010357
MTRNBC
METAR KNBC 010356Z 00000KT 10SM CLR 24/23 A3009 RMK AO2 SLP189
T02390228





000
SAUS42 KCHS 010354
MTRSAV
METAR KSAV 010353Z 00000KT 10SM SCT200 23/22 A3010 RMK AO2 SLP191
LAST AUGMENTED OBSERVATION UNTIL 1000Z T02330222 $





000
SAUS42 KCHS 010258
MTRNBC
METAR KNBC 010256Z 00000KT 10SM SCT200 24/23 A3009 RMK AO2 SLP191
T02390228 51016





000
SAUS42 KCHS 010255
MTRSAV
METAR KSAV 010253Z 00000KT 10SM SCT200 24/22 A3010 RMK AO2 SLP191
T02390222 51016 $





000
SAUS42 KCHS 010157
MTRNBC
METAR KNBC 010156Z 00000KT 10SM SCT200 24/23 A3009 RMK AO2 SLP190
T02440228





000
SAUS42 KCHS 010154
MTRSAV
METAR KSAV 010153Z 08003KT 10SM FEW038 SCT200 25/23 A3009 RMK AO2
SLP190 T02500228 $





000
SAUS42 KCHS 010154
MTRSAV
METAR KSAV 010153Z 08003KT 10SM FEW038 SCT200 25/23 A3009 RMK AO2
SLP190 T02500228 $





000
SAUS42 KCHS 010057
MTRNBC
METAR KNBC 010056Z 00000KT 10SM FEW200 25/23 A3006 RMK AO2 SLP180
T02500233





000
SAUS42 KCHS 010054
MTRSAV
METAR KSAV 010053Z 00000KT 10SM FEW038 FEW200 26/23 A3007 RMK AO2
SLP180 T02560228 $





000
SAUS42 KCHS 312357
MTRNBC
METAR KNBC 312356Z 31003KT 10SM FEW050 FEW200 27/23 A3005 RMK AO2
SLP175 T02670233 10300 20267 53001





000
SAUS42 KCHS 312357
MTRNBC
METAR KNBC 312356Z 31003KT 10SM FEW050 FEW200 27/23 A3005 RMK AO2
SLP175 T02670233 10300 20267 53001





000
SAUS42 KCHS 312354
MTRSAV
METAR KSAV 312353Z 34005KT 10SM FEW039 FEW060 SCT200 27/22 A3005 RMK
AO2 SLP176 T02670222 10300 20267 53001 $





000
SAUS42 KCHS 312257
MTRNBC
METAR KNBC 312256Z 30004KT 10SM FEW025 SCT050 28/22 A3005 RMK AO2
SLP175 T02830217





000
SAUS42 KCHS 312257
MTRNBC
METAR KNBC 312256Z 30004KT 10SM FEW025 SCT050 28/22 A3005 RMK AO2
SLP175 T02830217





000
SAUS42 KCHS 312254
MTRSAV
METAR KSAV 312253Z 33007KT 10SM SCT039 SCT060 BKN200 28/22 A3005 RMK
AO2 SLP176 T02830222 $





000
SAUS42 KCHS 312157
MTRNBC
METAR KNBC 312156Z 29005KT 10SM FEW025 BKN044 28/22 A3004 RMK AO2
SLP173 T02830222





000
SAUS42 KCHS 312154
MTRSAV
METAR KSAV 312153Z 00000KT 10SM FEW029 BKN042 BKN060 BKN200 29/22
A3005 RMK AO2 SLP174 T02890217 $





000
SAUS42 KCHS 312057
MTRNBC
METAR KNBC 312056Z 30006KT 10SM SCT024 BKN043 29/23 A3005 RMK AO2
SLP175 T02940233 56010





000
SAUS42 KCHS 312054
MTRSAV
METAR KSAV 312053Z 00000KT 10SM SCT023 BKN036 BKN200 29/22 A3005 RMK
AO2 SLP174 T02940222 56013 $





000
SAUS42 KCHS 312054
MTRSAV
METAR KSAV 312053Z 00000KT 10SM SCT023 BKN036 BKN200 29/22 A3005 RMK
AO2 SLP174 T02940222 56013 $





000
SAUS42 KCHS 311957
MTRNBC
METAR KNBC 311956Z 31007KT 10SM FEW020 SCT025 BKN046 30/23 A3005 RMK
AO2 SLP175 T03000233





000
SAUS42 KCHS 311954
MTRSAV
METAR KSAV 311953Z 00000KT 10SM FEW019 BKN038 BKN060 28/22 A3005 RMK
AO2 SLP176 T02830222 $





000
SAUS42 KCHS 311954
MTRSAV
METAR KSAV 311953Z 00000KT 10SM FEW019 BKN038 BKN060 28/22 A3005 RMK
AO2 SLP176 T02830222 $





000
SAUS42 KCHS 311858
MTRNBC
METAR KNBC 311856Z 33006KT 10SM SCT023 BKN031 29/23 A3006 RMK AO2
SLP178 T02940228





000
SAUS42 KCHS 311858
MTRNBC
METAR KNBC 311856Z 33006KT 10SM SCT023 BKN031 29/23 A3006 RMK AO2
SLP178 T02940228





000
SAUS42 KCHS 311854
MTRSAV
METAR KSAV 311853Z 02006KT 10SM SCT015 OVC034 28/22 A3007 RMK AO2
SLP181 T02780222 $





000
SAUS42 KCHS 311854
MTRSAV
METAR KSAV 311853Z 02006KT 10SM SCT015 OVC034 28/22 A3007 RMK AO2
SLP181 T02780222 $





000
SAUS42 KCHS 311757
MTRNBC
METAR KNBC 311756Z 33006KT 10SM SCT033 BKN040 BKN080 29/23 A3008 RMK
AO2 RAB19E34 SLP185 P0000 60000 T02890233 10289 20233 50004





000
SAUS42 KCHS 311757
MTRNBC
METAR KNBC 311756Z 33006KT 10SM SCT033 BKN040 BKN080 29/23 A3008 RMK
AO2 RAB19E34 SLP185 P0000 60000 T02890233 10289 20233 50004





000
SAUS42 KCHS 311755
MTRSAV
METAR KSAV 311753Z 02004KT 10SM SCT018 BKN032 OVC200 28/23 A3009 RMK
AO2 SLP187 T02780228 10278 20228 50000 $





000
SAUS42 KCHS 311755
MTRSAV
METAR KSAV 311753Z 02004KT 10SM SCT018 BKN032 OVC200 28/23 A3009 RMK
AO2 SLP187 T02780228 10278 20228 50000 $





000
SAUS42 KCHS 311726 COR
MTRNBC
SPECI KNBC 311721Z 31006KT 10SM -RA SCT025 OVC031 28/23 A3008 RMK
AO2 RAB19 P0000 T02780233





000
SAUS42 KCHS 311726 COR
MTRNBC
SPECI KNBC 311721Z 31006KT 10SM -RA SCT025 OVC031 28/23 A3008 RMK
AO2 RAB19 P0000 T02780233





000
SAUS42 KCHS 311722
MTRNBC
SPECI KNBC 311721Z 31006KT 10SM -RA SCT025 OVC031 28/23 A3008 RMK
AO2 RAB19 P0000 T02780233





000
SAUS42 KCHS 311722
MTRNBC
SPECI KNBC 311721Z 31006KT 10SM -RA SCT025 OVC031 28/23 A3008 RMK
AO2 RAB19 P0000 T02780233





000
SAUS42 KCHS 311718
MTRSAV
SPECI KSAV 311717Z VRB04KT 10SM SCT013 BKN016 BKN025 BKN250 28/23
A3009 RMK AO2 T02780228 $





000
SAUS42 KCHS 311718
MTRSAV
SPECI KSAV 311717Z VRB04KT 10SM SCT013 BKN016 BKN025 BKN250 28/23
A3009 RMK AO2 T02780228 $





000
SAUS42 KCHS 311658
MTRNBC
METAR KNBC 311656Z 33005KT 10SM BKN025 OVC030 28/23 A3008 RMK AO2
SLP187 T02780228





000
SAUS42 KCHS 311658
MTRNBC
METAR KNBC 311656Z 33005KT 10SM BKN025 OVC030 28/23 A3008 RMK AO2
SLP187 T02780228





000
SAUS42 KCHS 311654
MTRSAV
METAR KSAV 311653Z 32005KT 10SM BKN012 OVC016 26/23 A3009 RMK AO2
SLP188 T02610228 $





000
SAUS42 KCHS 311641
MTRSAV
SPECI KSAV 311639Z 31006KT 10SM BKN010 OVC015 26/23 A3009 RMK AO2
T02610228 $





000
SAUS42 KCHS 311557
MTRNBC
METAR KNBC 311556Z 36006KT 10SM BKN015 27/23 A3008 RMK AO2 SLP186
T02720233





000
SAUS42 KCHS 311554
MTRSAV
METAR KSAV 311553Z 32006KT 10SM OVC007 25/23 A3009 RMK AO2 CIG
006V011 SLP189 T02500228 $





000
SAUS42 KCHS 311554
MTRSAV
METAR KSAV 311553Z 32006KT 10SM OVC007 25/23 A3009 RMK AO2 CIG
006V011 SLP189 T02500228 $





000
SAUS42 KCHS 311550
MTRNBC
SPECI KNBC 311549Z 33007KT 10SM BKN015 27/23 A3008 RMK AO2 T02670233





000
SAUS42 KCHS 311458
MTRNBC
METAR KNBC 311456Z 34008KT 10SM FEW006 BKN041 27/24 A3007 RMK AO2
SLP181 60000 T02720239 51013





000
SAUS42 KCHS 311454
MTRSAV
METAR KSAV 311453Z 35007KT 10SM OVC007 25/23 A3009 RMK AO2 CIG
007V011 SLP187 T02500228 51020 $





000
SAUS42 KCHS 311412
MTRNBC
SPECI KNBC 311411Z 34004KT 10SM FEW006 BKN041 25/23 A3006 RMK AO2
T02500233





000
SAUS42 KCHS 311357
MTRNBC
METAR KNBC 311356Z 35005KT 10SM OVC039 25/23 A3006 RMK AO2 RAB28E37
SLP179 P0000 T02500233





000
SAUS42 KCHS 311355
MTRSAV
METAR KSAV 311353Z 36006KT 10SM OVC005 24/23 A3008 RMK AO2 SLP183
T02440228 $





000
SAUS42 KCHS 311352
MTRSAV
SPECI KSAV 311351Z 36005KT 10SM OVC005 24/23 A3008 RMK AO2 $





000
SAUS42 KCHS 311258
MTRNBC
METAR KNBC 311256Z 35005KT 10SM SCT005 BKN032 OVC041 24/23 A3006 RMK
AO2 SLP179 T02390228





000
SAUS42 KCHS 311254
MTRSAV
METAR KSAV 311253Z 31005KT 10SM OVC004 24/23 A3006 RMK AO2 SLP177
T02390228 $





000
SAUS42 KCHS 311246
MTRNBC
SPECI KNBC 311245Z 01007KT 10SM SCT004 BKN032 OVC041 23/23 A3005 RMK
AO2 T02330228





000
SAUS42 KCHS 311246
MTRNBC
SPECI KNBC 311245Z 01007KT 10SM SCT004 BKN032 OVC041 23/23 A3005 RMK
AO2 T02330228





000
SAUS42 KCHS 311235
MTRSAV
SPECI KSAV 311234Z 31003KT 3SM BR BKN004 BKN150 BKN250 23/23 A3005
RMK AO2 SFC VIS 4 T02330228 $





000
SAUS42 KCHS 311235
MTRSAV
SPECI KSAV 311234Z 31003KT 3SM BR BKN004 BKN150 BKN250 23/23 A3005
RMK AO2 SFC VIS 4 T02330228 $





000
SAUS42 KCHS 311219
MTRNBC
SPECI KNBC 311218Z 01005KT 1 1/2SM BR OVC004 24/23 A3005 RMK AO2
T02390228





000
SAUS42 KCHS 311219
MTRNBC
SPECI KNBC 311218Z 01005KT 1 1/2SM BR OVC004 24/23 A3005 RMK AO2
T02390228





000
SAUS42 KCHS 311216
MTRSAV
SPECI KSAV 311215Z 30003KT 1 1/2SM BR BKN003 OVC150 23/23 A3004 RMK
AO2 SFC VIS 2 1/2 T02330228 $





000
SAUS42 KCHS 311216
MTRSAV
SPECI KSAV 311215Z 30003KT 1 1/2SM BR BKN003 OVC150 23/23 A3004 RMK
AO2 SFC VIS 2 1/2 T02330228 $





000
SAUS42 KCHS 311158
MTRNBC
METAR KNBC 311156Z 02007KT 1 1/2SM BR OVC003 24/23 A3003 RMK AO2
SLP169 60068 70185 T02390233 10250 20233 53005





000
SAUS42 KCHS 311158
MTRNBC
METAR KNBC 311156Z 02007KT 1 1/2SM BR OVC003 24/23 A3003 RMK AO2
SLP169 60068 70185 T02390233 10250 20233 53005





000
SAUS42 KCHS 311155
MTRSAV
METAR KSAV 311153Z 00000KT 1/2SM R10/6000VP6000FT BR BKN002 OVC130
23/22 A3003 RMK AO2 SFC VIS 3/4 SLP167 60058 70166 T02280222 10239
20228 53003 $





000
SAUS42 KCHS 311155
MTRSAV
METAR KSAV 311153Z 00000KT 1/2SM R10/6000VP6000FT BR BKN002 OVC130
23/22 A3003 RMK AO2 SFC VIS 3/4 SLP167 60058 70166 T02280222 10239
20228 53003 $





000
SAUS42 KCHS 311153
MTRNBC
SPECI KNBC 311152Z 02007KT 1 1/2SM BR OVC003 24/23 A3003 RMK AO2





000
SAUS42 KCHS 311153
MTRNBC
SPECI KNBC 311152Z 02007KT 1 1/2SM BR OVC003 24/23 A3003 RMK AO2





000
SAUS42 KCHS 311114
MTRNBC
SPECI KNBC 311112Z 01004KT 10SM FEW003 BKN120 BKN180 24/23 A3000 RMK
AO2 T02390228





000
SAUS42 KCHS 311114
MTRNBC
SPECI KNBC 311112Z 01004KT 10SM FEW003 BKN120 BKN180 24/23 A3000 RMK
AO2 T02390228





000
SAUS42 KCHS 311057
MTRNBC
METAR KNBC 311056Z 33003KT 10SM BKN120 BKN180 24/23 A3000 RMK AO2
RAE37 SLP159 P0000 T02390228





000
SAUS42 KCHS 311057
MTRNBC
METAR KNBC 311056Z 33003KT 10SM BKN120 BKN180 24/23 A3000 RMK AO2
RAE37 SLP159 P0000 T02390228





000
SAUS42 KCHS 311054
MTRSAV
METAR KSAV 311053Z 34005KT 1/2SM R10/P6000FT BR BKN003 OVC130 23/22
A3000 RMK AO2 SFC VIS 3 SLP159 VIS W 1 T02330222





000
SAUS42 KCHS 311054
MTRSAV
METAR KSAV 311053Z 34005KT 1/2SM R10/P6000FT BR BKN003 OVC130 23/22
A3000 RMK AO2 SFC VIS 3 SLP159 VIS W 1 T02330222





000
SAUS42 KCHS 311047
MTRSAV
SPECI KSAV 311046Z 34005KT 10SM BKN003 OVC130 23/22 A3000 RMK AO2
T02330222





000
SAUS42 KCHS 311047
MTRSAV
SPECI KSAV 311046Z 34005KT 10SM BKN003 OVC130 23/22 A3000 RMK AO2
T02330222





000
SAUS42 KCHS 311038
MTRNBC
SPECI KNBC 311037Z 31004KT 10SM BKN120 24/23 A3000 RMK AO2 RAE37
FIRST P0000 T02390228





000
SAUS42 KCHS 310957
MTRNBC
METAR KNBC 310956Z AUTO 02006KT 5SM RA FEW033 BKN041 OVC110 24/23
A3001 RMK AO2 TSB03E19 SLP163 P0055 T02390233





000
SAUS42 KCHS 310955
MTRNBC
SPECI KNBC 310954Z AUTO 03005KT 4SM RA BKN038 BKN070 OVC110 24/23
A3001 RMK AO2 TSB03E19 P0055





000
SAUS42 KCHS 310954
MTRSAV
METAR KSAV 310953Z 01005KT 10SM FEW008 SCT037 BKN130 BKN190 23/22
A3001 RMK AO2 SLP160 FIRST AUGMENTED OBSERVATION T02330222





000
SAUS42 KCHS 310954
MTRSAV
METAR KSAV 310953Z 01005KT 10SM FEW008 SCT037 BKN130 BKN190 23/22
A3001 RMK AO2 SLP160 FIRST AUGMENTED OBSERVATION T02330222





000
SAUS42 KCHS 310946
MTRNBC
SPECI KNBC 310945Z AUTO 33007KT 2SM RA FEW007 OVC036 24/23 A3001 RMK
AO2 TSB03E19 P0053 T02440233





000
SAUS42 KCHS 310946
MTRNBC
SPECI KNBC 310945Z AUTO 33007KT 2SM RA FEW007 OVC036 24/23 A3001 RMK
AO2 TSB03E19 P0053 T02440233





000
SAUS42 KCHS 310944
MTRNBC
SPECI KNBC 310942Z AUTO 32007KT 1 1/2SM RA SCT012 BKN031 OVC038
24/23 A3001 RMK AO2 TSB03E19 P0052 T02390233





000
SAUS42 KCHS 310941
MTRSAV
SPECI KSAV 310940Z AUTO 35006KT 10SM FEW010 SCT037 23/23 A3001 RMK
AO2 T02330228 TSNO





000
SAUS42 KCHS 310939
MTRNBC
SPECI KNBC 310938Z AUTO 30009KT 1 1/4SM RA SCT011 BKN023 OVC034
24/23 A3002 RMK AO2 TSB03E19 P0051 T02390233





000
SAUS42 KCHS 310939
MTRNBC
SPECI KNBC 310938Z AUTO 30009KT 1 1/4SM RA SCT011 BKN023 OVC034
24/23 A3002 RMK AO2 TSB03E19 P0051 T02390233





000
SAUS42 KCHS 310929
MTRNBC
SPECI KNBC 310928Z AUTO 28013G21KT 3/4SM RA FEW007 BKN015 OVC100
24/23 A3003 RMK AO2 TSB03E19 P0037 T02390233





000
SAUS42 KCHS 310929
MTRNBC
SPECI KNBC 310928Z AUTO 28013G21KT 3/4SM RA FEW007 BKN015 OVC100
24/23 A3003 RMK AO2 TSB03E19 P0037 T02390233





000
SAUS42 KCHS 310927
MTRNBC
SPECI KNBC 310925Z AUTO 26014G21KT 1 1/2SM RA FEW007 BKN017 OVC100
24/23 A3003 RMK AO2 TSB03E19 P0024 T02440233





000
SAUS42 KCHS 310927
MTRNBC
SPECI KNBC 310925Z AUTO 26014G21KT 1 1/2SM RA FEW007 BKN017 OVC100
24/23 A3003 RMK AO2 TSB03E19 P0024 T02440233





000
SAUS42 KCHS 310922
MTRNBC
SPECI KNBC 310920Z AUTO 30008KT 6SM RA BKN014 BKN024 OVC080 24/23
A3002 RMK AO2 TSB03E19 P0006 T02440233





000
SAUS42 KCHS 310910
MTRNBC
SPECI KNBC 310909Z AUTO 34005KT 5SM TSRA SCT016 BKN026 OVC095 24/24
A3001 RMK AO2 TSB03 P0004 T02440239





000
SAUS42 KCHS 310857
MTRNBC
METAR KNBC 310856Z AUTO 32005KT 3SM RA SCT015 BKN024 OVC110 25/24
A3002 RMK AO2 SLP165 P0013 60013 T02500239 58009





000
SAUS42 KCHS 310857
MTRNBC
METAR KNBC 310856Z AUTO 32005KT 3SM RA SCT015 BKN024 OVC110 25/24
A3002 RMK AO2 SLP165 P0013 60013 T02500239 58009





000
SAUS42 KCHS 310854
MTRSAV
METAR KSAV 310853Z AUTO 00000KT 10SM BKN012 BKN050 23/23 A3002 RMK
AO2 RAE33 SLP164 P0056 60058 T02330228 56008 TSNO





000
SAUS42 KCHS 310851
MTRNBC
SPECI KNBC 310850Z AUTO 36008KT 2SM RA FEW015 BKN024 OVC100 24/23
A3002 RMK AO2 P0012





    US Dept of Commerce
    National Oceanic and Atmospheric Administration
    National Weather Service
    1325 East West Highway
    Silver Spring, MD 20910
    Page Author: NWS Internet Services Team
Disclaimer
Information Quality
Credits
Glossary
Privacy Policy
Freedom of Information Act (FOIA)
About Us
Career Opportunities